Time,TemperatureF,DewpointF,PressureIn,WindDirection,WindDirectionDegrees,WindSpeedMPH,WindSpeedGustMPH,Humidity,HourlyPrecipIn,Conditions,Clouds,dailyrainin,SoftwareType,DateUTC
2013-01-18 00:03:00,47.0,36.6,30.16,SSW,211,0.0,0.0,67,0.00,,,0.00,WeatherTracker,2013-01-18 08:03:00,
2013-01-18 00:08:00,47.1,36.7,30.16,SSW,211,0.0,0.0,67,0.00,,,0.00,WeatherTracker,2013-01-18 08:08:00,
2013-01-18 00:13:00,46.9,36.5,30.16,SSW,212,0.0,0.0,67,0.00,,,0.00,WeatherTracker,2013-01-18 08:13:00,
2013-01-18 00:18:00,46.8,36.4,30.16,SSW,211,0.0,0.0,67,0.00,,,0.00,WeatherTracker,2013-01-18 08:18:00,
2013-01-18 00:23:00,46.7,36.7,30.16,SSW,211,0.0,0.0,68,0.00,,,0.00,WeatherTracker,2013-01-18 08:23:00,
2013-01-18 00:28:00,46.6,36.6,30.16,SSW,212,0.0,0.0,68,0.00,,,0.00,WeatherTracker,2013-01-18 08:28:00,
2013-01-18 00:33:00,46.8,36.8,30.16,SSW,212,0.0,0.0,68,0.00,,,0.00,WeatherTracker,2013-01-18 08:33:00,
2013-01-18 00:38:00,46.7,36.7,30.16,SSW,212,0.0,0.0,68,0.00,,,0.00,WeatherTracker,2013-01-18 08:38:00,
2013-01-18 00:43:00,46.4,36.4,30.16,SSW,211,0.0,0.0,68,0.00,,,0.00,WeatherTracker,2013-01-18 08:43:00,
2013-01-18 00:48:00,46.4,36.8,30.16,SSW,212,0.0,0.0,69,0.00,,,0.00,WeatherTracker,2013-01-18 08:48:00,
2013-01-18 00:53:00,46.2,36.6,30.16,SSW,211,0.0,0.0,69,0.00,,,0.00,WeatherTracker,2013-01-18 08:53:00,
2013-01-18 00:58:00,46.3,36.7,30.16,SSW,211,0.0,0.0,69,0.00,,,0.00,WeatherTracker,2013-01-18 08:58:00,
2013-01-18 01:03:00,46.4,36.8,30.16,SSW,211,0.0,0.0,69,0.00,,,0.00,WeatherTracker,2013-01-18 09:03:00,
2013-01-18 01:08:00,46.7,36.7,30.16,SSW,211,0.0,0.0,68,0.00,,,0.00,WeatherTracker,2013-01-18 09:08:00,
2013-01-18 01:13:00,46.6,36.6,30.16,SSW,212,0.0,0.0,68,0.00,,,0.00,WeatherTracker,2013-01-18 09:13:00,
2013-01-18 01:18:00,46.7,36.7,30.16,SSW,211,0.0,0.0,68,0.00,,,0.00,WeatherTracker,2013-01-18 09:18:00,
2013-01-18 01:23:00,46.6,36.6,30.16,SSW,211,0.0,0.0,68,0.00,,,0.00,WeatherTracker,2013-01-18 09:23:00,
2013-01-18 01:28:00,46.7,37.1,30.16,SSW,212,0.0,0.0,69,0.00,,,0.00,WeatherTracker,2013-01-18 09:28:00,
2013-01-18 01:33:00,46.8,36.8,30.16,SSW,211,0.0,0.0,68,0.00,,,0.00,WeatherTracker,2013-01-18 09:33:00,
2013-01-18 01:38:00,46.6,37.0,30.16,SSW,211,0.0,0.0,69,0.00,,,0.00,WeatherTracker,2013-01-18 09:38:00,
2013-01-18 01:43:00,46.3,36.7,30.16,SSW,212,0.0,0.0,69,0.00,,,0.00,WeatherTracker,2013-01-18 09:43:00,
2013-01-18 01:48:00,46.1,36.9,30.16,SW,219,0.0,0.0,70,0.00,,,0.00,WeatherTracker,2013-01-18 09:48:00,
2013-01-18 01:53:00,46.3,37.4,30.16,SW,234,0.0,0.0,71,0.00,,,0.00,WeatherTracker,2013-01-18 09:53:00,
2013-01-18 01:59:00,46.5,37.6,30.16,SW,235,0.0,0.0,71,0.00,,,0.00,WeatherTracker,2013-01-18 09:59:00,
2013-01-18 02:04:00,46.7,37.8,30.16,West,277,1.0,0.0,71,0.00,,,0.00,WeatherTracker,2013-01-18 10:04:00,
2013-01-18 02:09:00,46.9,38.0,30.16,WNW,283,0.0,0.0,71,0.00,,,0.00,WeatherTracker,2013-01-18 10:09:00,
2013-01-18 02:14:00,46.9,38.0,30.16,NW,318,0.0,0.0,71,0.00,,,0.00,WeatherTracker,2013-01-18 10:14:00,
2013-01-18 02:19:00,47.0,38.1,30.16,WSW,249,1.0,0.0,71,0.00,,,0.00,WeatherTracker,2013-01-18 10:19:00,
2013-01-18 02:24:00,46.8,38.3,30.16,WSW,246,0.0,0.0,72,0.00,,,0.00,WeatherTracker,2013-01-18 10:24:00,
2013-01-18 02:29:00,46.8,38.6,30.16,WSW,246,0.0,0.0,73,0.00,,,0.00,WeatherTracker,2013-01-18 10:29:00,
2013-01-18 02:34:00,46.9,38.7,30.16,WSW,245,0.0,0.0,73,0.00,,,0.00,WeatherTracker,2013-01-18 10:34:00,
2013-01-18 02:39:00,47.0,38.8,30.16,West,269,1.0,0.0,73,0.00,,,0.00,WeatherTracker,2013-01-18 10:39:00,
2013-01-18 02:44:00,47.2,39.0,30.16,WNW,301,1.0,0.0,73,0.00,,,0.00,WeatherTracker,2013-01-18 10:44:00,
2013-01-18 02:49:00,47.5,38.9,30.16,WNW,291,0.0,0.0,72,0.00,,,0.00,WeatherTracker,2013-01-18 10:49:00,
2013-01-18 02:54:00,47.6,39.0,30.16,WNW,288,0.0,0.0,72,0.00,,,0.00,WeatherTracker,2013-01-18 10:54:00,
2013-01-18 02:59:00,47.6,39.0,30.16,WNW,293,0.0,0.0,72,0.00,,,0.00,WeatherTracker,2013-01-18 10:59:00,
2013-01-18 03:04:00,47.5,38.9,30.16,WNW,293,0.0,0.0,72,0.00,,,0.00,WeatherTracker,2013-01-18 11:04:00,
2013-01-18 03:09:00,47.2,39.0,30.16,SW,229,0.0,0.0,73,0.00,,,0.00,WeatherTracker,2013-01-18 11:09:00,
2013-01-18 03:14:00,46.9,38.4,30.16,SW,229,0.0,0.0,72,0.00,,,0.00,WeatherTracker,2013-01-18 11:14:00,
2013-01-18 03:19:00,46.8,38.6,30.16,West,281,0.0,0.0,73,0.00,,,0.00,WeatherTracker,2013-01-18 11:19:00,
2013-01-18 03:24:00,47.1,39.2,30.16,WNW,295,0.0,0.0,74,0.00,,,0.00,WeatherTracker,2013-01-18 11:24:00,
2013-01-18 03:29:00,47.2,39.0,30.16,NW,314,0.0,0.0,73,0.00,,,0.00,WeatherTracker,2013-01-18 11:29:00,
2013-01-18 03:34:00,47.3,39.1,30.16,NW,323,1.0,0.0,73,0.00,,,0.00,WeatherTracker,2013-01-18 11:34:00,
2013-01-18 03:39:00,47.6,39.0,30.16,NW,319,2.0,0.0,72,0.00,,,0.00,WeatherTracker,2013-01-18 11:39:00,
2013-01-18 03:45:00,47.8,39.2,30.16,WNW,294,2.0,0.0,72,0.00,,,0.00,WeatherTracker,2013-01-18 11:45:00,
2013-01-18 03:50:00,47.9,39.3,30.16,WNW,300,4.0,0.0,72,0.00,,,0.00,WeatherTracker,2013-01-18 11:50:00,
2013-01-18 03:55:00,48.0,39.4,30.16,NNW,328,1.0,0.0,72,0.00,,,0.00,WeatherTracker,2013-01-18 11:55:00,
2013-01-18 04:00:00,48.1,39.1,30.16,NW,318,0.0,0.0,71,0.00,,,0.00,WeatherTracker,2013-01-18 12:00:00,
2013-01-18 04:05:00,48.1,39.5,30.16,NNW,328,1.0,0.0,72,0.00,,,0.00,WeatherTracker,2013-01-18 12:05:00,
2013-01-18 04:10:00,48.2,39.2,30.16,NW,314,0.0,0.0,71,0.00,,,0.00,WeatherTracker,2013-01-18 12:10:00,
2013-01-18 04:15:00,48.2,39.2,30.16,NW,311,1.0,0.0,71,0.00,,,0.00,WeatherTracker,2013-01-18 12:15:00,
2013-01-18 04:20:00,48.1,39.1,30.16,NW,312,1.0,0.0,71,0.00,,,0.00,WeatherTracker,2013-01-18 12:20:00,
2013-01-18 04:25:00,47.9,39.3,30.16,NW,304,0.0,0.0,72,0.00,,,0.00,WeatherTracker,2013-01-18 12:25:00,
2013-01-18 04:30:00,47.8,39.2,30.16,WNW,295,0.0,0.0,72,0.00,,,0.00,WeatherTracker,2013-01-18 12:30:00,
2013-01-18 04:35:00,47.7,39.5,30.15,WNW,294,0.0,0.0,73,0.00,,,0.00,WeatherTracker,2013-01-18 12:35:00,
2013-01-18 04:40:00,47.6,39.4,30.15,WNW,294,0.0,0.0,73,0.00,,,0.00,WeatherTracker,2013-01-18 12:40:00,
2013-01-18 04:45:00,47.5,39.6,30.15,WNW,293,0.0,0.0,74,0.00,,,0.00,WeatherTracker,2013-01-18 12:45:00,
2013-01-18 04:50:00,47.3,39.4,30.15,WNW,293,0.0,0.0,74,0.00,,,0.00,WeatherTracker,2013-01-18 12:50:00,
2013-01-18 04:55:00,47.1,39.2,30.15,WNW,294,0.0,0.0,74,0.00,,,0.00,WeatherTracker,2013-01-18 12:55:00,
2013-01-18 05:00:00,46.8,39.0,30.15,WNW,293,0.0,0.0,74,0.00,,,0.00,WeatherTracker,2013-01-18 13:00:00,
2013-01-18 05:05:00,46.4,38.6,30.15,WNW,293,0.0,0.0,74,0.00,,,0.00,WeatherTracker,2013-01-18 13:05:00,
2013-01-18 05:10:00,45.8,38.3,30.15,WNW,293,0.0,0.0,75,0.00,,,0.00,WeatherTracker,2013-01-18 13:10:00,
2013-01-18 05:15:00,45.4,37.9,30.15,WNW,295,0.0,0.0,75,0.00,,,0.00,WeatherTracker,2013-01-18 13:15:00,
2013-01-18 05:20:00,45.3,38.5,30.15,WNW,293,0.0,0.0,77,0.00,,,0.00,WeatherTracker,2013-01-18 13:20:00,
2013-01-18 05:26:00,45.2,38.4,30.15,WNW,293,0.0,0.0,77,0.00,,,0.00,WeatherTracker,2013-01-18 13:26:00,
2013-01-18 05:31:00,45.2,38.4,30.15,WNW,295,0.0,0.0,77,0.00,,,0.00,WeatherTracker,2013-01-18 13:31:00,
2013-01-18 05:36:00,44.9,38.1,30.15,WNW,295,0.0,0.0,77,0.00,,,0.00,WeatherTracker,2013-01-18 13:36:00,
2013-01-18 05:41:00,44.5,37.7,30.15,WNW,295,0.0,0.0,77,0.00,,,0.00,WeatherTracker,2013-01-18 13:41:00,
2013-01-18 05:46:00,44.3,37.9,30.16,SW,225,0.0,0.0,78,0.00,,,0.00,WeatherTracker,2013-01-18 13:46:00,
2013-01-18 05:51:00,44.2,37.8,30.16,SW,225,0.0,0.0,78,0.00,,,0.00,WeatherTracker,2013-01-18 13:51:00,
2013-01-18 05:56:00,44.1,37.7,30.16,SW,225,0.0,0.0,78,0.00,,,0.00,WeatherTracker,2013-01-18 13:56:00,
2013-01-18 06:01:00,43.8,37.4,30.16,SW,225,0.0,0.0,78,0.00,,,0.00,WeatherTracker,2013-01-18 14:01:00,
2013-01-18 06:06:00,44.0,38.6,30.16,SW,225,0.0,0.0,81,0.00,,,0.00,WeatherTracker,2013-01-18 14:06:00,
2013-01-18 06:11:00,43.9,37.8,30.16,SW,225,0.0,0.0,79,0.00,,,0.00,WeatherTracker,2013-01-18 14:11:00,
2013-01-18 06:16:00,43.9,38.1,30.16,SW,225,0.0,0.0,80,0.00,,,0.00,WeatherTracker,2013-01-18 14:16:00,
2013-01-18 06:21:00,43.9,38.1,30.16,SSW,203,0.0,0.0,80,0.00,,,0.00,WeatherTracker,2013-01-18 14:21:00,
2013-01-18 06:26:00,44.1,38.6,30.16,SSW,203,0.0,0.0,81,0.00,,,0.00,WeatherTracker,2013-01-18 14:26:00,
2013-01-18 06:31:00,44.1,38.6,30.16,SSW,203,0.0,0.0,81,0.00,,,0.00,WeatherTracker,2013-01-18 14:31:00,
2013-01-18 06:36:00,44.1,38.3,30.16,SSW,203,0.0,0.0,80,0.00,,,0.00,WeatherTracker,2013-01-18 14:36:00,
2013-01-18 06:41:00,44.7,39.9,30.16,SSW,203,0.0,0.0,83,0.00,,,0.00,WeatherTracker,2013-01-18 14:41:00,
2013-01-18 06:46:00,44.1,38.6,30.16,SSW,203,0.0,0.0,81,0.00,,,0.00,WeatherTracker,2013-01-18 14:46:00,
2013-01-18 06:51:00,43.8,38.4,30.16,SSW,204,0.0,0.0,81,0.00,,,0.00,WeatherTracker,2013-01-18 14:51:00,
2013-01-18 06:56:00,43.8,39.0,30.16,SSW,203,0.0,0.0,83,0.00,,,0.00,WeatherTracker,2013-01-18 14:56:00,
2013-01-18 07:01:00,43.9,39.1,30.16,SSW,203,0.0,0.0,83,0.00,,,0.00,WeatherTracker,2013-01-18 15:01:00,
2013-01-18 07:06:00,43.7,38.6,30.16,SSW,203,0.0,0.0,82,0.00,,,0.00,WeatherTracker,2013-01-18 15:06:00,
2013-01-18 07:11:00,43.6,38.5,30.16,SSW,203,0.0,0.0,82,0.00,,,0.00,WeatherTracker,2013-01-18 15:11:00,
2013-01-18 07:17:00,43.6,38.8,30.16,SSW,203,0.0,0.0,83,0.00,,,0.00,WeatherTracker,2013-01-18 15:17:00,
2013-01-18 07:22:00,43.6,38.8,30.16,SSW,203,0.0,0.0,83,0.00,,,0.00,WeatherTracker,2013-01-18 15:22:00,
2013-01-18 07:27:00,43.8,39.0,30.17,SSW,203,0.0,0.0,83,0.00,,,0.00,WeatherTracker,2013-01-18 15:27:00,
2013-01-18 07:32:00,44.1,39.3,30.17,SSW,205,0.0,0.0,83,0.00,,,0.00,WeatherTracker,2013-01-18 15:32:00,
2013-01-18 07:37:00,44.1,39.0,30.17,SSW,204,0.0,0.0,82,0.00,,,0.00,WeatherTracker,2013-01-18 15:37:00,
2013-01-18 07:42:00,44.2,39.1,30.17,SSW,203,0.0,0.0,82,0.00,,,0.00,WeatherTracker,2013-01-18 15:42:00,
2013-01-18 07:47:00,44.4,39.3,30.17,SSW,203,0.0,0.0,82,0.00,,,0.00,WeatherTracker,2013-01-18 15:47:00,
2013-01-18 07:52:00,44.7,39.5,30.17,SSW,203,0.0,0.0,82,0.00,,,0.00,WeatherTracker,2013-01-18 15:52:00,
2013-01-18 07:57:00,45.0,39.5,30.18,SSW,203,0.0,0.0,81,0.00,,,0.00,WeatherTracker,2013-01-18 15:57:00,
2013-01-18 08:02:00,46.0,42.1,30.18,SSW,203,0.0,0.0,86,0.00,,,0.00,WeatherTracker,2013-01-18 16:02:00,
2013-01-18 08:07:00,47.6,43.3,30.18,SSW,203,0.0,0.0,85,0.00,,,0.00,WeatherTracker,2013-01-18 16:07:00,
2013-01-18 08:12:00,48.2,42.3,30.18,South,186,0.0,0.0,80,0.00,,,0.00,WeatherTracker,2013-01-18 16:12:00,
2013-01-18 08:17:00,48.8,42.2,30.18,South,179,0.0,0.0,78,0.00,,,0.00,WeatherTracker,2013-01-18 16:17:00,
2013-01-18 08:22:00,49.1,41.5,30.18,SE,142,0.0,0.0,75,0.00,,,0.00,WeatherTracker,2013-01-18 16:22:00,
2013-01-18 08:27:00,49.7,42.4,30.19,SE,134,0.0,0.0,76,0.00,,,0.00,WeatherTracker,2013-01-18 16:27:00,
2013-01-18 08:32:00,50.3,42.3,30.19,ESE,120,0.0,0.0,74,0.00,,,0.00,WeatherTracker,2013-01-18 16:32:00,
2013-01-18 08:37:00,50.6,42.3,30.19,SE,146,0.0,0.0,73,0.00,,,0.00,WeatherTracker,2013-01-18 16:37:00,
2013-01-18 08:42:00,51.0,42.3,30.19,SSE,157,0.0,0.0,72,0.00,,,0.00,WeatherTracker,2013-01-18 16:42:00,
2013-01-18 08:47:00,51.5,42.8,30.19,SE,127,0.0,0.0,72,0.00,,,0.00,WeatherTracker,2013-01-18 16:47:00,
2013-01-18 08:52:00,52.0,42.5,30.20,SE,132,0.0,0.0,70,0.00,,,0.00,WeatherTracker,2013-01-18 16:52:00,
2013-01-18 08:57:00,52.7,43.2,30.20,ESE,123,0.0,0.0,70,0.00,,,0.00,WeatherTracker,2013-01-18 16:57:00,
2013-01-18 09:02:00,52.9,42.6,30.20,SE,131,1.0,0.0,68,0.00,,,0.00,WeatherTracker,2013-01-18 17:02:00,
2013-01-18 09:07:00,52.9,42.2,30.20,SE,135,0.0,0.0,67,0.00,,,0.00,WeatherTracker,2013-01-18 17:07:00,
2013-01-18 09:12:00,53.1,41.6,30.20,ESE,110,1.0,0.0,65,0.00,,,0.00,WeatherTracker,2013-01-18 17:12:00,
2013-01-18 09:17:00,53.0,41.2,30.20,East,86,2.0,0.0,64,0.00,,,0.00,WeatherTracker,2013-01-18 17:17:00,
2013-01-18 09:22:00,53.0,40.7,30.20,ESE,121,2.0,0.0,63,0.00,,,0.00,WeatherTracker,2013-01-18 17:22:00,
2013-01-18 09:27:00,53.2,40.5,30.21,ENE,72,1.0,0.0,62,0.00,,,0.00,WeatherTracker,2013-01-18 17:27:00,
2013-01-18 09:32:00,53.4,41.1,30.21,ESE,113,1.0,0.0,63,0.00,,,0.00,WeatherTracker,2013-01-18 17:32:00,
2013-01-18 09:37:00,53.7,40.1,30.21,ENE,69,1.0,0.0,60,0.00,,,0.00,WeatherTracker,2013-01-18 17:37:00,
2013-01-18 09:42:00,54.0,39.1,30.21,ENE,60,3.0,0.0,57,0.00,,,0.00,WeatherTracker,2013-01-18 17:42:00,
2013-01-18 09:48:00,54.2,37.9,30.21,East,79,2.0,0.0,54,0.00,,,0.00,WeatherTracker,2013-01-18 17:48:00,
2013-01-18 09:53:00,54.3,37.5,30.21,East,100,1.0,0.0,53,0.00,,,0.00,WeatherTracker,2013-01-18 17:53:00,
2013-01-18 09:58:00,54.6,37.8,30.21,ESE,119,4.0,0.0,53,0.00,,,0.00,WeatherTracker,2013-01-18 17:58:00,
2013-01-18 10:03:00,55.0,38.2,30.21,ENE,77,2.0,0.0,53,0.00,,,0.00,WeatherTracker,2013-01-18 18:03:00,
2013-01-18 10:08:00,55.4,38.1,30.21,ESE,113,4.0,0.0,52,0.00,,,0.00,WeatherTracker,2013-01-18 18:08:00,
2013-01-18 10:13:00,55.5,38.2,30.21,NE,53,3.0,0.0,52,0.00,,,0.00,WeatherTracker,2013-01-18 18:13:00,
2013-01-18 10:18:00,55.6,38.3,30.20,SE,124,1.0,0.0,52,0.00,,,0.00,WeatherTracker,2013-01-18 18:18:00,
2013-01-18 10:23:00,55.6,39.7,30.20,ESE,120,3.0,0.0,55,0.00,,,0.00,WeatherTracker,2013-01-18 18:23:00,
2013-01-18 10:28:00,55.5,40.1,30.20,NE,47,3.0,0.0,56,0.00,,,0.00,WeatherTracker,2013-01-18 18:28:00,
2013-01-18 10:33:00,55.8,38.4,30.20,East,84,3.0,0.0,52,0.00,,,0.00,WeatherTracker,2013-01-18 18:33:00,
2013-01-18 10:38:00,56.4,38.5,30.20,East,82,5.0,0.0,51,0.00,,,0.00,WeatherTracker,2013-01-18 18:38:00,
2013-01-18 10:43:00,56.3,37.4,30.20,East,98,5.0,0.0,49,0.00,,,0.00,WeatherTracker,2013-01-18 18:43:00,
2013-01-18 10:48:00,56.4,37.5,30.20,East,90,2.0,0.0,49,0.00,,,0.00,WeatherTracker,2013-01-18 18:48:00,
2013-01-18 10:53:00,56.6,38.2,30.20,East,89,2.0,0.0,50,0.00,,,0.00,WeatherTracker,2013-01-18 18:53:00,
2013-01-18 10:58:00,56.8,38.4,30.19,ENE,74,6.0,0.0,50,0.00,,,0.00,WeatherTracker,2013-01-18 18:58:00,
2013-01-18 11:03:00,56.9,39.0,30.19,ENE,75,0.0,0.0,51,0.00,,,0.00,WeatherTracker,2013-01-18 19:03:00,
2013-01-18 11:08:00,57.3,38.8,30.19,ENE,70,4.0,0.0,50,0.00,,,0.00,WeatherTracker,2013-01-18 19:08:00,
2013-01-18 11:13:00,57.3,38.3,30.19,ENE,71,2.0,0.0,49,0.00,,,0.00,WeatherTracker,2013-01-18 19:13:00,
2013-01-18 11:18:00,57.3,38.3,30.19,NE,42,3.0,0.0,49,0.00,,,0.00,WeatherTracker,2013-01-18 19:18:00,
2013-01-18 11:23:00,57.8,38.2,30.18,East,90,4.0,0.0,48,0.00,,,0.00,WeatherTracker,2013-01-18 19:23:00,
2013-01-18 11:28:00,58.2,38.1,30.18,East,87,3.0,0.0,47,0.00,,,0.00,WeatherTracker,2013-01-18 19:28:00,
2013-01-18 11:33:00,58.7,38.0,30.18,ENE,68,5.0,0.0,46,0.00,,,0.00,WeatherTracker,2013-01-18 19:33:00,
2013-01-18 11:39:00,58.5,37.2,30.18,East,86,2.0,0.0,45,0.00,,,0.00,WeatherTracker,2013-01-18 19:39:00,
2013-01-18 11:44:00,58.9,37.0,30.18,NNE,30,6.0,0.0,44,0.00,,,0.00,WeatherTracker,2013-01-18 19:44:00,
2013-01-18 11:49:00,58.9,35.9,30.17,ENE,63,2.0,0.0,42,0.00,,,0.00,WeatherTracker,2013-01-18 19:49:00,
2013-01-18 11:54:00,58.9,36.4,30.17,ENE,71,3.0,0.0,43,0.00,,,0.00,WeatherTracker,2013-01-18 19:54:00,
2013-01-18 11:59:00,58.8,36.4,30.17,East,79,7.0,0.0,43,0.00,,,0.00,WeatherTracker,2013-01-18 19:59:00,
2013-01-18 12:04:00,58.8,36.4,30.16,ESE,105,2.0,0.0,43,0.00,,,0.00,WeatherTracker,2013-01-18 20:04:00,
2013-01-18 12:09:00,58.8,35.8,30.16,NE,42,3.0,0.0,42,0.00,,,0.00,WeatherTracker,2013-01-18 20:09:00,
2013-01-18 12:14:00,59.0,35.9,30.16,NE,49,8.0,0.0,42,0.00,,,0.00,WeatherTracker,2013-01-18 20:14:00,
2013-01-18 12:19:00,58.8,35.8,30.16,NE,54,5.0,0.0,42,0.00,,,0.00,WeatherTracker,2013-01-18 20:19:00,
2013-01-18 12:24:00,59.0,35.9,30.15,NNE,15,2.0,0.0,42,0.00,,,0.00,WeatherTracker,2013-01-18 20:24:00,
2013-01-18 12:29:00,59.1,36.0,30.15,ENE,61,4.0,0.0,42,0.00,,,0.00,WeatherTracker,2013-01-18 20:29:00,
2013-01-18 12:34:00,59.6,36.5,30.15,East,92,6.0,0.0,42,0.00,,,0.00,WeatherTracker,2013-01-18 20:34:00,
2013-01-18 12:39:00,59.7,36.6,30.15,NE,49,2.0,0.0,42,0.00,,,0.00,WeatherTracker,2013-01-18 20:39:00,
2013-01-18 12:44:00,60.1,36.3,30.14,ENE,76,2.0,0.0,41,0.00,,,0.00,WeatherTracker,2013-01-18 20:44:00,
2013-01-18 12:49:00,60.3,35.9,30.14,East,90,4.0,0.0,40,0.00,,,0.00,WeatherTracker,2013-01-18 20:49:00,
2013-01-18 12:54:00,60.5,36.1,30.14,ENE,70,1.0,0.0,40,0.00,,,0.00,WeatherTracker,2013-01-18 20:54:00,
2013-01-18 12:59:00,61.0,36.5,30.14,ENE,70,2.0,0.0,40,0.00,,,0.00,WeatherTracker,2013-01-18 20:59:00,
2013-01-18 13:04:00,61.3,36.1,30.14,ENE,60,2.0,0.0,39,0.00,,,0.00,WeatherTracker,2013-01-18 21:04:00,
2013-01-18 13:09:00,61.5,36.3,30.14,ENE,61,4.0,0.0,39,0.00,,,0.00,WeatherTracker,2013-01-18 21:09:00,
2013-01-18 13:14:00,62.1,36.2,30.13,ENE,68,4.0,0.0,38,0.00,,,0.00,WeatherTracker,2013-01-18 21:14:00,
2013-01-18 13:19:00,62.4,35.1,30.13,NE,56,6.0,0.0,36,0.00,,,0.00,WeatherTracker,2013-01-18 21:19:00,
2013-01-18 13:24:00,62.6,35.3,30.13,ENE,57,0.0,0.0,36,0.00,,,0.00,WeatherTracker,2013-01-18 21:24:00,
2013-01-18 13:29:00,62.7,33.9,30.13,ENE,68,2.0,0.0,34,0.00,,,0.00,WeatherTracker,2013-01-18 21:29:00,
2013-01-18 13:34:00,62.8,34.0,30.13,ENE,63,4.0,0.0,34,0.00,,,0.00,WeatherTracker,2013-01-18 21:34:00,
2013-01-18 13:39:00,62.7,33.9,30.13,ENE,77,3.0,0.0,34,0.00,,,0.00,WeatherTracker,2013-01-18 21:39:00,
2013-01-18 13:45:00,62.8,34.0,30.12,East,90,1.0,0.0,34,0.00,,,0.00,WeatherTracker,2013-01-18 21:45:00,
2013-01-18 13:50:00,62.9,33.4,30.12,ESE,108,3.0,0.0,33,0.00,,,0.00,WeatherTracker,2013-01-18 21:50:00,
2013-01-18 13:55:00,62.9,33.4,30.12,East,98,3.0,0.0,33,0.00,,,0.00,WeatherTracker,2013-01-18 21:55:00,
2013-01-18 14:00:00,63.4,33.8,30.12,ENE,72,3.0,0.0,33,0.00,,,0.00,WeatherTracker,2013-01-18 22:00:00,
2013-01-18 14:05:00,63.5,33.1,30.12,ESE,115,5.0,0.0,32,0.00,,,0.00,WeatherTracker,2013-01-18 22:05:00,
2013-01-18 14:10:00,63.0,33.4,30.12,ENE,70,2.0,0.0,33,0.00,,,0.00,WeatherTracker,2013-01-18 22:10:00,
2013-01-18 14:15:00,63.1,32.0,30.12,NE,54,6.0,0.0,31,0.00,,,0.00,WeatherTracker,2013-01-18 22:15:00,
2013-01-18 14:20:00,63.0,32.7,30.12,East,98,3.0,0.0,32,0.00,,,0.00,WeatherTracker,2013-01-18 22:20:00,
2013-01-18 14:25:00,63.4,33.8,30.12,ESE,110,2.0,0.0,33,0.00,,,0.00,WeatherTracker,2013-01-18 22:25:00,
2013-01-18 14:30:00,63.6,34.0,30.12,NNE,23,0.0,0.0,33,0.00,,,0.00,WeatherTracker,2013-01-18 22:30:00,
2013-01-18 14:35:00,63.8,33.4,30.12,ENE,68,3.0,0.0,32,0.00,,,0.00,WeatherTracker,2013-01-18 22:35:00,
2013-01-18 14:40:00,64.0,33.5,30.12,ENE,75,7.0,0.0,32,0.00,,,0.00,WeatherTracker,2013-01-18 22:40:00,
2013-01-18 14:45:00,63.8,32.6,30.12,ENE,77,6.0,0.0,31,0.00,,,0.00,WeatherTracker,2013-01-18 22:45:00,
2013-01-18 14:50:00,63.9,31.9,30.11,East,90,5.0,0.0,30,0.00,,,0.00,WeatherTracker,2013-01-18 22:50:00,
2013-01-18 14:55:00,63.9,32.7,30.11,ENE,74,3.0,0.0,31,0.00,,,0.00,WeatherTracker,2013-01-18 22:55:00,
2013-01-18 15:00:00,64.1,32.8,30.11,ENE,65,3.0,0.0,31,0.00,,,0.00,WeatherTracker,2013-01-18 23:00:00,
2013-01-18 15:05:00,64.4,33.1,30.11,ENE,74,5.0,0.0,31,0.00,,,0.00,WeatherTracker,2013-01-18 23:05:00,
2013-01-18 15:10:00,64.4,32.3,30.11,NNE,33,2.0,0.0,30,0.00,,,0.00,WeatherTracker,2013-01-18 23:10:00,
2013-01-18 15:15:00,64.6,32.5,30.11,East,90,4.0,0.0,30,0.00,,,0.00,WeatherTracker,2013-01-18 23:15:00,
2013-01-18 15:20:00,64.6,32.5,30.11,East,87,4.0,0.0,30,0.00,,,0.00,WeatherTracker,2013-01-18 23:20:00,
2013-01-18 15:25:00,64.6,33.3,30.11,NW,326,0.0,0.0,31,0.00,,,0.00,WeatherTracker,2013-01-18 23:25:00,
2013-01-18 15:31:00,64.4,33.1,30.11,North,353,1.0,0.0,31,0.00,,,0.00,WeatherTracker,2013-01-18 23:31:00,
2013-01-18 15:36:00,64.3,33.8,30.11,North,1,3.0,0.0,32,0.00,,,0.00,WeatherTracker,2013-01-18 23:36:00,
2013-01-18 15:41:00,64.3,33.8,30.11,NW,309,3.0,0.0,32,0.00,,,0.00,WeatherTracker,2013-01-18 23:41:00,
2013-01-18 15:46:00,64.4,33.9,30.11,NW,321,3.0,0.0,32,0.00,,,0.00,WeatherTracker,2013-01-18 23:46:00,
2013-01-18 15:51:00,64.3,33.8,30.11,WNW,303,0.0,0.0,32,0.00,,,0.00,WeatherTracker,2013-01-18 23:51:00,
2013-01-18 15:56:00,64.4,33.9,30.11,NW,318,1.0,0.0,32,0.00,,,0.00,WeatherTracker,2013-01-18 23:56:00,
2013-01-18 16:01:00,64.2,34.5,30.11,WNW,288,4.0,0.0,33,0.00,,,0.00,WeatherTracker,2013-01-19 00:01:00,
2013-01-18 16:06:00,63.5,35.4,30.11,NW,304,5.0,0.0,35,0.00,,,0.00,WeatherTracker,2013-01-19 00:06:00,
2013-01-18 16:11:00,63.3,35.2,30.11,NW,304,3.0,0.0,35,0.00,,,0.00,WeatherTracker,2013-01-19 00:11:00,
2013-01-18 16:16:00,63.2,35.1,30.11,WNW,300,4.0,0.0,35,0.00,,,0.00,WeatherTracker,2013-01-19 00:16:00,
2013-01-18 16:21:00,63.1,35.0,30.11,NW,307,2.0,0.0,35,0.00,,,0.00,WeatherTracker,2013-01-19 00:21:00,
2013-01-18 16:26:00,63.0,35.6,30.11,WNW,299,1.0,0.0,36,0.00,,,0.00,WeatherTracker,2013-01-19 00:26:00,
2013-01-18 16:31:00,62.9,35.5,30.11,WNW,300,1.0,0.0,36,0.00,,,0.00,WeatherTracker,2013-01-19 00:31:00,
2013-01-18 16:36:00,62.9,35.5,30.11,NNW,334,0.0,0.0,36,0.00,,,0.00,WeatherTracker,2013-01-19 00:36:00,
2013-01-18 16:41:00,63.0,36.3,30.11,NW,304,0.0,0.0,37,0.00,,,0.00,WeatherTracker,2013-01-19 00:41:00,
2013-01-18 16:46:00,62.6,36.0,30.11,NW,326,0.0,0.0,37,0.00,,,0.00,WeatherTracker,2013-01-19 00:46:00,
2013-01-18 16:51:00,62.1,35.5,30.11,NW,321,1.0,0.0,37,0.00,,,0.00,WeatherTracker,2013-01-19 00:51:00,
2013-01-18 16:56:00,61.7,35.8,30.11,NW,307,0.0,0.0,38,0.00,,,0.00,WeatherTracker,2013-01-19 00:56:00,
2013-01-18 17:01:00,61.4,36.2,30.11,NW,308,1.0,0.0,39,0.00,,,0.00,WeatherTracker,2013-01-19 01:01:00,
2013-01-18 17:07:00,61.1,36.0,30.11,WNW,294,0.0,0.0,39,0.00,,,0.00,WeatherTracker,2013-01-19 01:07:00,
2013-01-18 17:12:00,60.6,36.8,30.11,WSW,238,0.0,0.0,41,0.00,,,0.00,WeatherTracker,2013-01-19 01:12:00,
2013-01-18 17:17:00,60.2,36.4,30.11,WSW,239,1.0,0.0,41,0.00,,,0.00,WeatherTracker,2013-01-19 01:17:00,
2013-01-18 17:22:00,60.0,36.2,30.12,WSW,243,1.0,0.0,41,0.00,,,0.00,WeatherTracker,2013-01-19 01:22:00,
2013-01-18 17:27:00,59.8,36.7,30.11,WSW,252,1.0,0.0,42,0.00,,,0.00,WeatherTracker,2013-01-19 01:27:00,
2013-01-18 17:32:00,59.4,36.3,30.11,WSW,256,0.0,0.0,42,0.00,,,0.00,WeatherTracker,2013-01-19 01:32:00,
2013-01-18 17:37:00,59.1,36.6,30.12,West,266,1.0,0.0,43,0.00,,,0.00,WeatherTracker,2013-01-19 01:37:00,
2013-01-18 17:42:00,58.8,36.9,30.12,West,271,0.0,0.0,44,0.00,,,0.00,WeatherTracker,2013-01-19 01:42:00,
2013-01-18 17:47:00,58.5,37.2,30.12,West,274,0.0,0.0,45,0.00,,,0.00,WeatherTracker,2013-01-19 01:47:00,
2013-01-18 17:52:00,58.1,36.9,30.12,West,274,0.0,0.0,45,0.00,,,0.00,WeatherTracker,2013-01-19 01:52:00,
2013-01-18 17:57:00,57.8,37.2,30.12,West,274,0.0,0.0,46,0.00,,,0.00,WeatherTracker,2013-01-19 01:57:00,
2013-01-18 18:02:00,57.5,36.9,30.12,West,274,0.0,0.0,46,0.00,,,0.00,WeatherTracker,2013-01-19 02:02:00,
2013-01-18 18:07:00,57.5,36.9,30.12,West,274,0.0,0.0,46,0.00,,,0.00,WeatherTracker,2013-01-19 02:07:00,
2013-01-18 18:12:00,57.3,37.2,30.12,WSW,248,0.0,0.0,47,0.00,,,0.00,WeatherTracker,2013-01-19 02:12:00,
2013-01-18 18:17:00,57.0,37.5,30.12,WSW,247,0.0,0.0,48,0.00,,,0.00,WeatherTracker,2013-01-19 02:17:00,
2013-01-18 18:22:00,56.7,37.2,30.12,WSW,248,0.0,0.0,48,0.00,,,0.00,WeatherTracker,2013-01-19 02:22:00,
2013-01-18 18:27:00,56.5,37.6,30.12,WSW,243,0.0,0.0,49,0.00,,,0.00,WeatherTracker,2013-01-19 02:27:00,
2013-01-18 18:32:00,56.3,37.9,30.12,WSW,243,0.0,0.0,50,0.00,,,0.00,WeatherTracker,2013-01-19 02:32:00,
2013-01-18 18:37:00,56.2,37.8,30.13,WSW,248,1.0,0.0,50,0.00,,,0.00,WeatherTracker,2013-01-19 02:37:00,
2013-01-18 18:42:00,56.0,37.6,30.13,WSW,245,2.0,0.0,50,0.00,,,0.00,WeatherTracker,2013-01-19 02:42:00,
2013-01-18 18:47:00,55.9,37.5,30.13,WSW,250,1.0,0.0,50,0.00,,,0.00,WeatherTracker,2013-01-19 02:47:00,
2013-01-18 18:52:00,55.7,37.9,30.13,WSW,249,1.0,0.0,51,0.00,,,0.00,WeatherTracker,2013-01-19 02:52:00,
2013-01-18 18:57:00,55.5,37.7,30.13,WSW,248,0.0,0.0,51,0.00,,,0.00,WeatherTracker,2013-01-19 02:57:00,
2013-01-18 19:03:00,55.3,38.0,30.13,West,266,0.0,0.0,52,0.00,,,0.00,WeatherTracker,2013-01-19 03:03:00,
2013-01-18 19:08:00,55.2,37.4,30.13,West,263,0.0,0.0,51,0.00,,,0.00,WeatherTracker,2013-01-19 03:08:00,
2013-01-18 19:13:00,55.1,37.8,30.13,West,263,0.0,0.0,52,0.00,,,0.00,WeatherTracker,2013-01-19 03:13:00,
2013-01-18 19:18:00,54.8,37.5,30.13,West,263,0.0,0.0,52,0.00,,,0.00,WeatherTracker,2013-01-19 03:18:00,
2013-01-18 19:23:00,54.8,37.5,30.13,West,263,0.0,0.0,52,0.00,,,0.00,WeatherTracker,2013-01-19 03:23:00,
2013-01-18 19:28:00,54.7,37.4,30.13,West,263,0.0,0.0,52,0.00,,,0.00,WeatherTracker,2013-01-19 03:28:00,
2013-01-18 19:33:00,54.6,37.8,30.13,West,263,0.0,0.0,53,0.00,,,0.00,WeatherTracker,2013-01-19 03:33:00,
2013-01-18 19:38:00,54.6,37.8,30.13,WSW,239,1.0,0.0,53,0.00,,,0.00,WeatherTracker,2013-01-19 03:38:00,
2013-01-18 19:43:00,54.5,37.7,30.13,WSW,243,1.0,0.0,53,0.00,,,0.00,WeatherTracker,2013-01-19 03:43:00,
2013-01-18 19:48:00,54.3,37.5,30.13,WSW,245,0.0,0.0,53,0.00,,,0.00,WeatherTracker,2013-01-19 03:48:00,
2013-01-18 19:53:00,54.0,37.7,30.13,WSW,245,0.0,0.0,54,0.00,,,0.00,WeatherTracker,2013-01-19 03:53:00,
2013-01-18 19:58:00,53.9,37.6,30.13,WSW,245,0.0,0.0,54,0.00,,,0.00,WeatherTracker,2013-01-19 03:58:00,
2013-01-18 20:03:00,54.0,37.7,30.13,WSW,243,1.0,0.0,54,0.00,,,0.00,WeatherTracker,2013-01-19 04:03:00,
2013-01-18 20:08:00,53.9,37.6,30.13,WSW,245,0.0,0.0,54,0.00,,,0.00,WeatherTracker,2013-01-19 04:08:00,
2013-01-18 20:13:00,53.9,37.6,30.13,WSW,245,0.0,0.0,54,0.00,,,0.00,WeatherTracker,2013-01-19 04:13:00,
2013-01-18 20:18:00,53.8,37.5,30.13,WSW,246,0.0,0.0,54,0.00,,,0.00,WeatherTracker,2013-01-19 04:18:00,
2013-01-18 20:23:00,53.6,37.4,30.13,WSW,245,0.0,0.0,54,0.00,,,0.00,WeatherTracker,2013-01-19 04:23:00,
2013-01-18 20:28:00,53.7,37.0,30.13,WSW,246,0.0,0.0,53,0.00,,,0.00,WeatherTracker,2013-01-19 04:28:00,
2013-01-18 20:33:00,53.7,37.0,30.13,WSW,245,0.0,0.0,53,0.00,,,0.00,WeatherTracker,2013-01-19 04:33:00,
2013-01-18 20:38:00,53.6,37.4,30.13,WSW,245,0.0,0.0,54,0.00,,,0.00,WeatherTracker,2013-01-19 04:38:00,
2013-01-18 20:43:00,53.3,37.1,30.13,WSW,245,0.0,0.0,54,0.00,,,0.00,WeatherTracker,2013-01-19 04:43:00,
2013-01-18 20:48:00,52.9,36.7,30.13,WSW,246,0.0,0.0,54,0.00,,,0.00,WeatherTracker,2013-01-19 04:48:00,
2013-01-18 20:53:00,52.9,36.7,30.13,WSW,245,0.0,0.0,54,0.00,,,0.00,WeatherTracker,2013-01-19 04:53:00,
2013-01-18 20:58:00,52.7,36.5,30.13,WSW,245,0.0,0.0,54,0.00,,,0.00,WeatherTracker,2013-01-19 04:58:00,
2013-01-18 21:00:00,52.6,36.9,30.13,WSW,246,0.0,0.0,55,0.00,,,0.00,WeatherTracker,2013-01-19 05:00:00,
2013-01-18 21:01:00,52.6,36.9,30.13,WSW,245,0.0,0.0,55,0.00,,,0.00,WeatherTracker,2013-01-19 05:01:00,
2013-01-18 21:06:00,52.4,36.2,30.13,WSW,245,0.0,0.0,54,0.00,,,0.00,WeatherTracker,2013-01-19 05:06:00,
2013-01-18 21:11:00,52.1,36.4,30.14,WSW,245,0.0,0.0,55,0.00,,,0.00,WeatherTracker,2013-01-19 05:11:00,
2013-01-18 21:16:00,52.1,36.4,30.14,WSW,245,1.0,0.0,55,0.00,,,0.00,WeatherTracker,2013-01-19 05:16:00,
2013-01-18 21:21:00,52.3,36.2,30.14,WSW,246,0.0,0.0,54,0.00,,,0.00,WeatherTracker,2013-01-19 05:21:00,
2013-01-18 21:26:00,52.1,36.4,30.14,WSW,246,0.0,0.0,55,0.00,,,0.00,WeatherTracker,2013-01-19 05:26:00,
2013-01-18 21:31:00,52.0,36.3,30.14,WSW,246,0.0,0.0,55,0.00,,,0.00,WeatherTracker,2013-01-19 05:31:00,
2013-01-18 21:36:00,52.0,35.9,30.14,WSW,245,1.0,0.0,54,0.00,,,0.00,WeatherTracker,2013-01-19 05:36:00,
2013-01-18 21:41:00,51.8,35.7,30.14,WSW,246,0.0,0.0,54,0.00,,,0.00,WeatherTracker,2013-01-19 05:41:00,
2013-01-18 21:46:00,51.5,35.4,30.14,WSW,246,0.0,0.0,54,0.00,,,0.00,WeatherTracker,2013-01-19 05:46:00,
2013-01-18 21:51:00,51.3,35.2,30.14,WSW,246,0.0,0.0,54,0.00,,,0.00,WeatherTracker,2013-01-19 05:51:00,
2013-01-18 21:56:00,51.0,35.4,30.14,WSW,246,0.0,0.0,55,0.00,,,0.00,WeatherTracker,2013-01-19 05:56:00,
2013-01-18 22:01:00,50.6,35.5,30.14,WSW,246,0.0,0.0,56,0.00,,,0.00,WeatherTracker,2013-01-19 06:01:00,
2013-01-18 22:07:00,50.4,35.7,30.14,WSW,245,0.0,0.0,57,0.00,,,0.00,WeatherTracker,2013-01-19 06:07:00,
2013-01-18 22:12:00,50.1,35.5,30.14,WSW,246,0.0,0.0,57,0.00,,,0.00,WeatherTracker,2013-01-19 06:12:00,
2013-01-18 22:17:00,50.1,35.5,30.14,WSW,246,0.0,0.0,57,0.00,,,0.00,WeatherTracker,2013-01-19 06:17:00,
2013-01-18 22:22:00,50.0,35.4,30.14,WSW,246,0.0,0.0,57,0.00,,,0.00,WeatherTracker,2013-01-19 06:22:00,
2013-01-18 22:27:00,49.6,35.0,30.14,WSW,246,0.0,0.0,57,0.00,,,0.00,WeatherTracker,2013-01-19 06:27:00,
2013-01-18 22:32:00,49.7,35.1,30.14,WSW,246,0.0,0.0,57,0.00,,,0.00,WeatherTracker,2013-01-19 06:32:00,
2013-01-18 22:37:00,49.7,35.5,30.15,WSW,245,0.0,0.0,58,0.00,,,0.00,WeatherTracker,2013-01-19 06:37:00,
2013-01-18 22:42:00,49.4,35.2,30.15,WSW,246,0.0,0.0,58,0.00,,,0.00,WeatherTracker,2013-01-19 06:42:00,
2013-01-18 22:47:00,49.2,35.5,30.15,WSW,245,0.0,0.0,59,0.00,,,0.00,WeatherTracker,2013-01-19 06:47:00,
2013-01-18 22:52:00,49.1,35.4,30.15,WSW,246,0.0,0.0,59,0.00,,,0.00,WeatherTracker,2013-01-19 06:52:00,
2013-01-18 22:57:00,48.7,35.0,30.15,WSW,246,0.0,0.0,59,0.00,,,0.00,WeatherTracker,2013-01-19 06:57:00,
2013-01-18 23:02:00,48.7,35.4,30.15,WSW,245,0.0,0.0,60,0.00,,,0.00,WeatherTracker,2013-01-19 07:02:00,
2013-01-18 23:07:00,48.7,35.4,30.15,WSW,246,0.0,0.0,60,0.00,,,0.00,WeatherTracker,2013-01-19 07:07:00,
2013-01-18 23:12:00,47.9,35.5,30.14,WSW,245,0.0,0.0,62,0.00,,,0.00,WeatherTracker,2013-01-19 07:12:00,
2013-01-18 23:17:00,47.7,35.3,30.15,WSW,246,0.0,0.0,62,0.00,,,0.00,WeatherTracker,2013-01-19 07:17:00,
2013-01-18 23:22:00,47.6,35.2,30.15,WSW,246,0.0,0.0,62,0.00,,,0.00,WeatherTracker,2013-01-19 07:22:00,
2013-01-18 23:27:00,47.7,35.3,30.15,WSW,246,0.0,0.0,62,0.00,,,0.00,WeatherTracker,2013-01-19 07:27:00,
2013-01-18 23:32:00,47.7,35.3,30.15,WSW,245,0.0,0.0,62,0.00,,,0.00,WeatherTracker,2013-01-19 07:32:00,
2013-01-18 23:37:00,48.0,35.2,30.15,SW,235,0.0,0.0,61,0.00,,,0.00,WeatherTracker,2013-01-19 07:37:00,
2013-01-18 23:42:00,48.1,35.3,30.15,SW,234,1.0,0.0,61,0.00,,,0.00,WeatherTracker,2013-01-19 07:42:00,
2013-01-18 23:47:00,48.1,35.3,30.15,SW,234,0.0,0.0,61,0.00,,,0.00,WeatherTracker,2013-01-19 07:47:00,
2013-01-18 23:52:00,48.2,35.4,30.15,SW,235,0.0,0.0,61,0.00,,,0.00,WeatherTracker,2013-01-19 07:52:00,
2013-01-18 23:57:00,48.1,35.7,30.15,SW,235,0.0,0.0,62,0.00,,,0.00,WeatherTracker,2013-01-19 07:57:00,